Mare Island, California
Current Conditions -  °F | °C
As of 2:54 AM on Sunday 23 Nov 2014 (Local Time) from KAPC Reporting Station
Clear Clear  
Wind Chill: 42°   Ceiling: Unl
Heat Index: 44°   Visibility: 10mi
Dew Point: 42°   Wind: 5mph
Humidity: 93%   Direction: 340°NNW
Pressure: 30.29"   Gusts: NA
Location:  38.1191°N, 122.313°W
Report Text: KAPC 231054Z AUTO 34004KT 10SM CLR 07/06 A3029 RMK AO2 SLP246 T00670056 $
Loading
Personal Weather Stations






























Interactive Weather Map New forecast layout! Learn more

10-Day Weather Forecast

Advertisements
Track Severe Weather on mobile